Time;durP1;ratioP1;P1;durP2;ratioP2;P2;SDS_P1;SDS_P2;PMS_P1;PMS_P2;Temp;Humidity;BMP_temperature;BMP_pressure;BME280_temperature;BME280_humidity;BME280_pressure;Samples;Min_cycle;Max_cycle;Signal;HPM_P1;HPM_P2
2023/08/24 00:02:02;;;;;;;;;10.50;8.50;;;;;27.67;49.91;101024.59;5056447;28;45458;-46
2023/08/24 00:04:28;;;;;;;;;10.50;10.25;;;;;27.61;49.99;101012.75;5056560;28;45516;-45
2023/08/24 00:06:54;;;;;;;;;12.40;10.00;;;;;27.70;49.47;101028.72;5056466;28;46374;-45
2023/08/24 00:09:19;;;;;;;;;10.75;9.75;;;;;27.70;49.76;101026.00;5054603;28;45789;-47
2023/08/24 00:11:45;;;;;;;;;9.00;7.00;;;;;27.73;50.00;101025.53;5056812;28;45380;-47
2023/08/24 00:14:10;;;;;;;;;12.00;10.75;;;;;27.70;49.92;101018.63;5056436;28;45391;-47
2023/08/24 00:16:36;;;;;;;;;10.00;7.25;;;;;27.66;49.25;101008.44;5056158;28;46346;-46
2023/08/24 00:19:01;;;;;;;;;9.00;9.00;;;;;27.65;49.90;101010.34;5056134;28;45324;-48
2023/08/24 00:21:26;;;;;;;;;10.50;9.00;;;;;27.60;49.82;101005.66;5056165;28;45223;-46
2023/08/24 00:23:52;;;;;;;;;14.25;10.00;;;;;27.60;50.17;101002.06;5056568;28;45468;-47
2023/08/24 00:26:18;;;;;;;;;10.40;8.20;;;;;27.57;49.85;100997.94;5055939;28;46241;-48
2023/08/24 00:28:43;;;;;;;;;11.75;8.75;;;;;27.51;50.33;101004.41;5055913;28;45412;-47
2023/08/24 00:31:10;;;;;;;;;14.20;10.80;;;;;27.48;50.54;101010.41;5055184;28;45445;-47
2023/08/24 00:33:36;;;;;;;;;9.50;9.50;;;;;27.42;50.51;101007.84;5056245;28;45442;-46
2023/08/24 00:36:02;;;;;;;;;12.25;12.00;;;;;27.40;50.55;101019.03;5055652;28;45378;-47
2023/08/24 00:38:28;;;;;;;;;8.00;8.00;;;;;27.38;50.75;101012.16;5055725;28;45473;-46
2023/08/24 00:40:54;;;;;;;;;11.40;9.40;;;;;27.31;51.13;101012.34;5056007;28;45379;-47
2023/08/24 00:43:23;;;;;;;;;10.20;9.80;;;;;27.30;51.34;101007.94;5055907;28;45516;-48
2023/08/24 00:45:54;;;;;;;;;13.80;10.00;;;;;27.25;51.29;101014.16;5055704;28;45874;-46
2023/08/24 00:48:25;;;;;;;;;9.60;8.80;;;;;27.27;51.40;101019.41;5055383;28;45312;-50
2023/08/24 00:50:52;;;;;;;;;11.60;9.80;;;;;27.25;51.16;101025.09;5055472;28;45396;-48
2023/08/24 00:53:18;;;;;;;;;11.20;10.20;;;;;27.20;51.56;101022.28;5056008;28;45442;-52
2023/08/24 00:55:44;;;;;;;;;15.80;11.60;;;;;27.19;51.68;101020.66;5054347;28;47001;-45
2023/08/24 00:58:10;;;;;;;;;11.00;9.75;;;;;27.18;51.59;101018.16;5055598;28;45395;-49
2023/08/24 01:00:35;;;;;;;;;10.75;9.50;;;;;27.13;51.20;101018.06;5055815;28;45393;-46
2023/08/24 01:03:00;;;;;;;;;11.00;9.00;;;;;27.10;51.45;101025.72;5055853;28;45232;-48
2023/08/24 01:05:26;;;;;;;;;13.25;8.50;;;;;26.98;51.64;101008.56;5055346;28;46066;-48
2023/08/24 01:07:51;;;;;;;;;10.50;9.75;;;;;27.04;51.18;101023.09;5055400;28;45201;-46
2023/08/24 01:10:17;;;;;;;;;8.50;8.00;;;;;27.02;51.58;101023.34;5055863;28;45419;-46
2023/08/24 01:12:55;;;;;;;;;6.75;6.75;;;;;26.98;51.62;101024.94;5055884;28;45386;-49
2023/08/24 01:15:36;;;;;;;;;11.00;8.40;;;;;26.97;51.61;101022.44;5055624;28;45354;-46
2023/08/24 01:18:13;;;;;;;;;9.00;8.00;;;;;26.94;51.52;101017.50;5055484;28;45344;-48
2023/08/24 01:20:40;;;;;;;;;11.00;9.60;;;;;26.96;51.83;101020.78;5055509;28;45321;-48
2023/08/24 01:23:20;;;;;;;;;8.60;7.60;;;;;26.94;51.87;101020.22;5055634;28;45583;-47
2023/08/24 01:25:52;;;;;;;;;13.00;8.00;;;;;26.92;51.76;101016.91;5053928;28;47623;-50
2023/08/24 01:28:20;;;;;;;;;9.60;8.00;;;;;26.83;52.17;101000.09;5055382;28;45412;-50
2023/08/24 01:30:46;;;;;;;;;9.80;7.20;;;;;26.88;52.25;101005.63;5055387;28;45517;-48
2023/08/24 01:33:13;;;;;;;;;10.60;7.20;;;;;26.87;52.03;101006.72;5055654;28;45370;-47
2023/08/24 01:35:39;;;;;;;;;8.00;6.60;;;;;26.75;51.88;100995.88;5054541;28;45536;-50
2023/08/24 01:38:06;;;;;;;;;11.60;9.40;;;;;26.80;52.25;101001.44;5055167;28;45961;-51
2023/08/24 01:41:06;;;;;;;;;10.60;9.00;;;;;26.80;52.05;101000.59;5055455;28;45336;-48
2023/08/24 01:43:35;;;;;;;;;8.00;8.00;;;;;26.79;52.55;100998.94;4995431;28;45505;-48
2023/08/24 01:46:04;;;;;;;;;8.40;6.20;;;;;26.78;52.44;101000.84;4979524;28;45365;-45
2023/08/24 01:48:31;;;;;;;;;9.80;9.00;;;;;26.70;52.32;100984.06;4979492;28;45537;-49
2023/08/24 01:50:58;;;;;;;;;9.80;8.20;;;;;26.73;52.12;100986.31;4996156;28;45779;-47
2023/08/24 01:53:24;;;;;;;;;8.40;8.40;;;;;26.72;52.55;100984.66;4996524;28;45571;-48
2023/08/24 01:55:49;;;;;;;;;7.40;7.40;;;;;26.67;52.69;100970.91;4996333;28;46326;-49
2023/08/24 01:58:15;;;;;;;;;12.00;8.50;;;;;26.62;52.53;100969.75;4995531;28;47266;-49
2023/08/24 02:00:41;;;;;;;;;7.75;6.50;;;;;26.65;52.91;100973.91;4996411;28;45434;-48
2023/08/24 02:03:06;;;;;;;;;10.00;7.50;;;;;26.62;52.79;100971.66;4996552;28;45517;-46
2023/08/24 02:05:31;;;;;;;;;9.00;8.00;;;;;26.62;52.42;100972.47;4995869;28;46937;-49
2023/08/24 02:07:57;;;;;;;;;8.50;8.00;;;;;26.60;52.74;100969.19;4995955;28;45499;-48
2023/08/24 02:10:22;;;;;;;;;7.50;7.00;;;;;26.59;52.54;100964.00;4996133;28;45429;-49
2023/08/24 02:12:48;;;;;;;;;7.00;7.00;;;;;26.48;52.83;100954.78;4996246;28;45489;-49
2023/08/24 02:15:13;;;;;;;;;8.75;8.75;;;;;26.51;52.82;100958.94;4995885;28;47031;-47
2023/08/24 02:17:38;;;;;;;;;9.50;7.50;;;;;26.54;52.69;100958.41;4996068;28;45436;-49
2023/08/24 02:20:05;;;;;;;;;10.00;8.75;;;;;26.53;52.61;100954.88;5023002;28;45364;-49
2023/08/24 02:22:31;;;;;;;;;8.40;8.40;;;;;26.51;52.43;100953.47;5058175;28;45611;-50
2023/08/24 02:24:56;;;;;;;;;7.00;7.00;;;;;26.50;52.48;100957.25;5057962;28;46030;-47
2023/08/24 02:27:22;;;;;;;;;10.00;9.25;;;;;26.47;53.02;100944.13;5057791;28;45300;-49
2023/08/24 02:29:47;;;;;;;;;9.75;9.00;;;;;26.47;52.90;100944.13;5058104;28;45473;-48
2023/08/24 02:32:12;;;;;;;;;7.75;7.75;;;;;26.43;53.28;100949.22;5057955;28;45395;-50
2023/08/24 02:34:38;;;;;;;;;8.00;8.00;;;;;26.41;52.60;100945.06;5057717;28;46312;-48
2023/08/24 02:37:04;;;;;;;;;7.00;7.00;;;;;26.38;53.27;100940.97;5057331;28;45316;-46
2023/08/24 02:39:29;;;;;;;;;9.00;7.00;;;;;26.37;53.15;100940.09;5057841;28;45459;-49
2023/08/24 02:41:54;;;;;;;;;9.50;9.50;;;;;26.34;53.06;100945.25;5056539;28;45467;-48
2023/08/24 02:44:20;;;;;;;;;9.25;8.00;;;;;26.36;52.89;100937.63;5056909;28;46443;-51
2023/08/24 02:46:48;;;;;;;;;9.75;9.75;;;;;26.33;53.25;100936.22;5057575;28;45399;-52
2023/08/24 02:49:13;;;;;;;;;9.00;9.00;;;;;26.31;53.71;100932.94;5057361;28;45430;-48
2023/08/24 02:51:39;;;;;;;;;12.00;9.25;;;;;26.32;53.32;100933.75;5057763;28;45339;-46
2023/08/24 02:54:04;;;;;;;;;9.50;8.00;;;;;26.28;53.87;100924.41;5056471;28;46546;-51
2023/08/24 02:56:30;;;;;;;;;8.75;7.00;;;;;26.25;53.94;100922.16;5057258;28;45416;-52
2023/08/24 02:58:55;;;;;;;;;8.75;8.00;;;;;26.23;53.66;100925.16;5057505;28;45276;-51
2023/08/24 03:01:21;;;;;;;;;13.00;8.50;;;;;26.21;53.55;100908.22;5056967;28;45330;-51
2023/08/24 03:03:46;;;;;;;;;9.00;9.00;;;;;26.19;53.80;100912.25;5057260;28;46194;-49
2023/08/24 03:06:12;;;;;;;;;8.50;8.50;;;;;26.16;53.59;100910.84;5057055;28;45381;-49
2023/08/24 03:08:37;;;;;;;;;8.00;8.00;;;;;26.11;53.71;100905.28;5056397;28;45428;-50
2023/08/24 03:11:02;;;;;;;;;9.25;8.25;;;;;26.10;54.32;100904.47;5057536;28;45298;-49
2023/08/24 03:13:29;;;;;;;;;10.75;9.25;;;;;26.07;54.42;100899.50;5057031;28;46351;-49
2023/08/24 03:15:54;;;;;;;;;8.40;7.80;;;;;26.00;54.45;100889.81;5057037;28;45398;-48
2023/08/24 03:18:20;;;;;;;;;9.75;8.00;;;;;25.95;54.79;100889.72;5057127;28;45329;-47
2023/08/24 03:20:47;;;;;;;;;11.50;10.00;;;;;25.95;55.13;100887.84;5057218;28;45445;-46
2023/08/24 03:23:12;;;;;;;;;8.60;8.00;;;;;25.93;55.43;100892.72;5056837;28;46197;-47
2023/08/24 03:25:40;;;;;;;;;8.00;8.00;;;;;25.91;54.63;100897.56;5057054;28;45323;-47
2023/08/24 03:28:07;;;;;;;;;9.00;9.00;;;;;25.87;55.32;100889.09;5056669;28;45264;-47
2023/08/24 03:30:35;;;;;;;;;12.60;9.00;;;;;25.84;55.25;100886.00;5057241;28;45513;-47
2023/08/24 03:33:01;;;;;;;;;8.80;8.80;;;;;25.83;55.02;100889.78;5056841;28;46548;-49
2023/08/24 03:35:26;;;;;;;;;10.50;9.25;;;;;25.77;55.21;100885.31;5056504;28;45398;-48
2023/08/24 03:37:51;;;;;;;;;16.00;12.50;;;;;25.70;56.32;100884.59;5056981;28;45288;-49
2023/08/24 03:40:17;;;;;;;;;10.00;8.25;;;;;25.68;56.16;100892.22;5056701;28;45517;-47
2023/08/24 03:42:42;;;;;;;;;12.50;9.50;;;;;25.61;54.94;100882.28;5056593;28;45974;-46
2023/08/24 03:45:08;;;;;;;;;11.75;11.75;;;;;25.57;56.55;100889.28;5056583;28;45375;-46
2023/08/24 03:47:33;;;;;;;;;9.00;8.50;;;;;25.50;56.63;100882.34;5056774;28;45683;-49
2023/08/24 03:49:59;;;;;;;;;12.25;9.75;;;;;25.49;56.50;100886.09;5056449;28;45573;-48
2023/08/24 03:52:25;;;;;;;;;9.40;9.40;;;;;25.46;56.76;100886.63;5056509;28;45425;-47
2023/08/24 03:54:50;;;;;;;;;10.25;9.25;;;;;25.43;56.88;100882.47;5056746;28;45324;-48
2023/08/24 03:57:15;;;;;;;;;13.00;10.50;;;;;25.39;56.83;100886.75;5056607;28;45304;-47
2023/08/24 03:59:41;;;;;;;;;12.75;10.50;;;;;25.33;57.32;100876.81;5056958;28;45529;-46
2023/08/24 04:02:07;;;;;;;;;10.50;10.50;;;;;25.37;57.49;100878.81;5056089;28;45383;-47
2023/08/24 04:04:33;;;;;;;;;7.75;7.75;;;;;25.27;57.25;100867.69;5056423;28;45365;-49
2023/08/24 04:06:58;;;;;;;;;9.60;9.40;;;;;25.33;57.94;100876.81;5055084;28;45479;-49
2023/08/24 04:09:23;;;;;;;;;12.75;11.00;;;;;25.28;57.48;100868.53;5056372;28;45329;-47
2023/08/24 04:11:49;;;;;;;;;11.00;8.00;;;;;25.26;57.78;100881.56;5056152;28;45442;-49
2023/08/24 04:14:14;;;;;;;;;8.75;7.75;;;;;25.25;58.24;100877.19;5056029;28;45500;-46
2023/08/24 04:16:41;;;;;;;;;10.25;8.75;;;;;25.23;58.10;100882.88;5055837;28;45471;-46
2023/08/24 04:19:07;;;;;;;;;11.20;8.40;;;;;25.16;58.32;100876.75;5056446;28;45420;-49
2023/08/24 04:21:33;;;;;;;;;13.75;11.50;;;;;25.20;58.62;100874.34;5055937;28;47186;-46
2023/08/24 04:23:59;;;;;;;;;10.50;10.25;;;;;25.23;57.92;100873.88;5055953;28;45394;-50
2023/08/24 04:26:24;;;;;;;;;9.00;8.40;;;;;25.23;58.13;100869.25;5054985;28;45491;-48
2023/08/24 04:28:50;;;;;;;;;12.25;8.75;;;;;25.23;57.98;100869.25;5056363;28;45368;-47
2023/08/24 04:31:15;;;;;;;;;12.50;9.00;;;;;25.18;58.17;100861.00;5055363;28;45335;-49
2023/08/24 04:33:40;;;;;;;;;8.50;8.50;;;;;25.17;58.76;100861.25;5056095;28;45339;-48
2023/08/24 04:36:06;;;;;;;;;9.00;9.00;;;;;25.12;58.76;100862.78;5055792;28;45466;-46
2023/08/24 04:38:31;;;;;;;;;12.25;12.25;;;;;25.11;58.65;100858.41;5056234;28;45474;-47
2023/08/24 04:40:57;;;;;;;;;9.25;9.25;;;;;25.11;58.36;100855.69;5055607;28;47663;-50
2023/08/24 04:43:23;;;;;;;;;13.00;9.50;;;;;25.11;58.07;100852.13;5055951;28;45314;-49
2023/08/24 04:45:52;;;;;;;;;12.40;10.00;;;;;25.09;58.15;100848.81;5055671;28;45446;-47
2023/08/24 04:48:21;;;;;;;;;9.20;9.20;;;;;25.09;58.19;100851.53;5055522;28;45265;-49
2023/08/24 04:50:46;;;;;;;;;10.20;9.60;;;;;25.03;58.41;100850.59;5055090;28;46374;-47
2023/08/24 04:53:14;;;;;;;;;8.25;8.25;;;;;25.05;58.42;100848.44;5055608;28;45541;-48
2023/08/24 04:55:40;;;;;;;;;11.00;11.00;;;;;25.02;58.74;100846.19;5056009;28;45355;-50
2023/08/24 04:58:07;;;;;;;;;12.25;9.25;;;;;24.95;57.88;100829.19;5055791;28;45495;-50
2023/08/24 05:00:33;;;;;;;;;14.20;11.00;;;;;25.01;57.90;100832.84;5055333;28;47023;-46
2023/08/24 05:02:58;;;;;;;;;9.20;9.20;;;;;24.95;57.58;100839.25;5055621;28;45514;-51
2023/08/24 05:05:24;;;;;;;;;11.75;11.00;;;;;24.96;57.88;100849.88;5055521;28;45455;-49
2023/08/24 05:07:49;;;;;;;;;13.25;10.75;;;;;24.89;58.21;100843.72;5054733;28;45344;-47
2023/08/24 05:10:15;;;;;;;;;10.50;10.00;;;;;24.93;58.40;100841.38;5055425;28;45382;-49
2023/08/24 05:12:40;;;;;;;;;9.25;9.25;;;;;24.94;58.14;100852.00;5055694;28;45423;-47
2023/08/24 05:15:06;;;;;;;;;14.00;10.00;;;;;24.96;57.88;100844.44;5055553;28;45490;-48
2023/08/24 05:17:34;;;;;;;;;12.25;9.50;;;;;24.94;57.44;100830.22;5056406;28;45322;-49
2023/08/24 05:19:59;;;;;;;;;12.20;9.40;;;;;25.05;57.51;100847.63;5057727;28;47006;-46
2023/08/24 05:22:25;;;;;;;;;11.00;8.00;;;;;25.00;57.23;100837.44;5058711;28;45373;-48
2023/08/24 05:24:50;;;;;;;;;9.50;9.50;;;;;25.09;56.41;100849.66;5059318;28;45491;-47
2023/08/24 05:27:16;;;;;;;;;12.75;10.00;;;;;25.06;56.28;100836.47;5059563;28;45359;-45
2023/08/24 05:29:41;;;;;;;;;10.50;10.50;;;;;25.19;56.17;100856.38;5058682;28;45507;-47
2023/08/24 05:32:07;;;;;;;;;9.50;9.00;;;;;25.21;55.91;100859.69;5058926;28;45390;-47
2023/08/24 05:34:32;;;;;;;;;14.25;10.25;;;;;25.24;55.29;100857.31;5059121;28;45383;-45
2023/08/24 05:36:58;;;;;;;;;9.50;9.00;;;;;25.35;55.92;100858.34;5058813;28;45269;-48
2023/08/24 05:39:23;;;;;;;;;10.25;10.25;;;;;25.44;55.07;100854.16;5058690;28;46327;-44
2023/08/24 05:41:52;;;;;;;;;11.50;10.00;;;;;25.52;54.95;100853.78;5057684;28;45405;-48
2023/08/24 05:44:21;;;;;;;;;10.00;10.00;;;;;25.61;54.81;100854.22;5058835;28;45342;-48
2023/08/24 05:46:47;;;;;;;;;12.20;10.40;;;;;25.67;54.71;100841.53;5058863;28;45381;-48
2023/08/24 05:49:13;;;;;;;;;12.50;12.00;;;;;25.66;54.24;100832.50;5058639;28;45418;-47
2023/08/24 05:51:38;;;;;;;;;12.00;12.00;;;;;25.63;54.73;100822.94;5058543;28;45293;-49
2023/08/24 05:54:04;;;;;;;;;9.25;9.25;;;;;25.71;54.63;100829.88;5058672;28;45509;-45
2023/08/24 05:56:29;;;;;;;;;9.00;9.00;;;;;25.57;54.03;100795.84;5058590;28;45410;-47
2023/08/24 05:58:55;;;;;;;;;12.00;12.00;;;;;25.78;54.41;100808.78;5058549;28;45419;-47
2023/08/24 06:01:20;;;;;;;;;10.75;10.25;;;;;25.88;53.96;100813.59;5058171;28;45265;-46
2023/08/24 06:03:46;;;;;;;;;10.00;10.00;;;;;25.92;53.06;100808.47;5058609;28;45354;-48
2023/08/24 06:06:11;;;;;;;;;9.75;9.75;;;;;26.03;53.02;100804.84;5058129;28;45414;-52
2023/08/24 06:08:37;;;;;;;;;11.75;10.75;;;;;26.05;52.99;100797.25;5057978;28;45375;-46
2023/08/24 06:11:02;;;;;;;;;10.25;9.25;;;;;26.20;52.31;100822.00;5058091;28;45459;-50
2023/08/24 06:13:28;;;;;;;;;13.75;11.00;;;;;26.28;52.41;100824.31;5058151;28;45303;-45
2023/08/24 06:15:54;;;;;;;;;9.00;9.00;;;;;26.35;52.40;100825.00;5058434;28;45382;-49
2023/08/24 06:18:19;;;;;;;;;13.40;9.60;;;;;26.39;51.86;100822.59;5057801;28;46145;-49
2023/08/24 06:20:45;;;;;;;;;13.25;10.50;;;;;26.42;51.90;100823.97;5058110;28;45679;-46
2023/08/24 06:23:13;;;;;;;;;10.00;10.00;;;;;26.38;51.62;100812.78;5057946;28;45351;-47
2023/08/24 06:25:38;;;;;;;;;17.20;12.80;;;;;26.39;51.44;100822.59;5058041;28;45351;-50
2023/08/24 06:28:04;;;;;;;;;11.25;11.25;;;;;26.40;51.48;100826.16;5057747;28;45612;-49
2023/08/24 06:30:32;;;;;;;;;14.25;12.00;;;;;26.42;51.48;100830.28;5056521;28;45406;-44
2023/08/24 06:32:58;;;;;;;;;9.00;9.00;;;;;26.48;51.56;100832.03;5056528;28;45326;-48
2023/08/24 06:35:24;;;;;;;;;11.75;11.25;;;;;26.54;51.16;100832.91;5057792;28;45328;-46
2023/08/24 06:37:49;;;;;;;;;12.00;10.50;;;;;26.56;51.10;100828.88;5057662;28;46563;-47
2023/08/24 06:40:14;;;;;;;;;10.25;9.75;;;;;26.62;51.08;100819.69;5057521;28;45834;-48
2023/08/24 06:42:40;;;;;;;;;11.75;10.50;;;;;26.73;50.89;100817.94;5057721;28;45467;-46
2023/08/24 06:45:06;;;;;;;;;10.25;10.25;;;;;26.82;50.64;100818.31;5057832;28;45385;-46
2023/08/24 06:47:32;;;;;;;;;13.60;9.00;;;;;26.92;50.32;100818.44;5057465;28;45900;-47
2023/08/24 06:49:57;;;;;;;;;12.00;12.00;;;;;27.01;50.02;100808.75;5057530;28;45426;-47
2023/08/24 06:52:22;;;;;;;;;10.75;10.75;;;;;27.14;49.70;100804.84;5057552;28;45492;-46
2023/08/24 06:54:53;;;;;;;;;12.00;10.75;;;;;27.20;49.97;100798.34;5057839;28;45433;-47
2023/08/24 06:57:18;;;;;;;;;10.80;7.60;;;;;27.33;49.36;100797.13;5057715;28;45531;-47
2023/08/24 06:59:43;;;;;;;;;10.25;10.00;;;;;27.43;49.02;100801.84;5057794;28;45369;-47
2023/08/24 07:02:09;;;;;;;;;12.25;9.25;;;;;27.49;48.59;100801.66;5057679;28;45351;-48
2023/08/24 07:04:34;;;;;;;;;16.00;12.25;;;;;27.63;48.51;100803.97;5057521;28;45410;-51
2023/08/24 07:06:59;;;;;;;;;11.25;10.00;;;;;27.85;48.47;100815.69;5057049;28;45570;-52
2023/08/24 07:09:25;;;;;;;;;11.75;9.00;;;;;28.07;48.23;100815.63;5057094;28;45329;-50
2023/08/24 07:11:51;;;;;;;;;11.25;10.50;;;;;28.45;47.96;100813.75;5057457;28;45488;-47
2023/08/24 07:14:16;;;;;;;;;12.50;9.00;;;;;28.91;47.09;100817.56;5057125;28;45403;-47
2023/08/24 07:16:42;;;;;;;;;14.00;11.00;;;;;29.53;45.87;100813.94;5057019;28;47053;-46
2023/08/24 07:19:08;;;;;;;;;9.60;9.60;;;;;30.26;44.20;100805.53;5057001;28;45335;-46
2023/08/24 07:21:33;;;;;;;;;11.00;8.00;;;;;30.97;42.68;100799.03;5056898;28;45397;-46
2023/08/24 07:23:59;;;;;;;;;9.25;8.50;;;;;31.44;41.64;100796.91;5057532;28;45479;-51
2023/08/24 07:26:25;;;;;;;;;12.25;9.75;;;;;32.02;40.36;100802.50;5056235;28;46512;-47
2023/08/24 07:28:51;;;;;;;;;9.20;9.20;;;;;32.64;40.33;100791.75;5057086;28;45311;-48
2023/08/24 07:31:16;;;;;;;;;10.25;8.75;;;;;33.37;37.58;100794.09;5057061;28;45926;-47
2023/08/24 07:33:45;;;;;;;;;8.75;8.75;;;;;33.52;37.51;100785.63;5057085;28;45676;-47
2023/08/24 07:36:10;;;;;;;;;10.20;8.60;;;;;33.97;37.06;100768.66;5056693;28;45612;-50
2023/08/24 07:38:36;;;;;;;;;11.75;9.50;;;;;33.44;37.43;100778.03;5056649;28;45381;-46
2023/08/24 07:41:01;;;;;;;;;9.50;8.75;;;;;32.46;39.16;100774.88;5056779;28;45604;-48
2023/08/24 07:43:26;;;;;;;;;10.50;10.00;;;;;31.67;40.55;100767.84;5056957;28;45311;-47
2023/08/24 07:45:52;;;;;;;;;9.75;7.75;;;;;31.03;41.31;100764.13;5056767;28;45398;-46
2023/08/24 07:48:17;;;;;;;;;10.75;9.50;;;;;30.68;42.13;100756.84;5056491;28;45459;-47
2023/08/24 07:50:43;;;;;;;;;14.75;12.00;;;;;30.57;42.03;100767.84;5056785;28;46431;-49
2023/08/24 07:53:08;;;;;;;;;12.75;10.75;;;;;30.43;42.62;100772.28;5057117;28;45393;-51
2023/08/24 07:55:34;;;;;;;;;10.00;8.25;;;;;30.20;43.48;100753.66;5056326;28;47124;-47
2023/08/24 07:57:59;;;;;;;;;11.75;10.50;;;;;30.61;42.63;100751.63;5056611;28;45216;-46
2023/08/24 08:00:26;;;;;;;;;10.50;9.00;;;;;31.52;41.24;100760.53;5056483;28;45353;-50
2023/08/24 08:02:51;;;;;;;;;12.20;10.40;;;;;32.24;39.90;100749.75;5056802;28;45559;-46
2023/08/24 08:05:20;;;;;;;;;10.75;10.75;;;;;33.06;37.96;100738.59;5056553;28;45486;-48
2023/08/24 08:07:45;;;;;;;;;13.00;10.20;;;;;33.64;36.80;100732.78;5056386;28;45371;-47
2023/08/24 08:10:10;;;;;;;;;11.75;9.75;;;;;34.27;36.63;100714.81;5056263;28;45438;-48
2023/08/24 08:12:36;;;;;;;;;10.00;10.00;;;;;34.90;35.35;100719.59;5056609;28;45476;-49
2023/08/24 08:15:02;;;;;;;;;9.25;9.25;;;;;35.35;34.70;100727.16;5056158;28;45394;-51
2023/08/24 08:17:27;;;;;;;;;7.20;7.20;;;;;35.91;33.96;100743.22;5056288;28;45489;-49
2023/08/24 08:19:57;;;;;;;;;9.00;9.00;;;;;36.54;36.12;100752.34;5056347;28;45515;-48
2023/08/24 08:22:23;;;;;;;;;10.20;8.80;;;;;37.06;31.58;100740.56;5056237;28;45509;-48
2023/08/24 08:24:49;;;;;;;;;7.40;6.80;;;;;37.48;31.28;100736.19;5056032;28;47252;-51
2023/08/24 08:27:15;;;;;;;;;10.80;8.80;;;;;38.27;30.78;100740.41;5056186;28;45430;-49
2023/08/24 08:29:40;;;;;;;;;13.25;8.50;;;;;39.36;29.75;100759.09;5056121;28;45387;-51
2023/08/24 08:32:07;;;;;;;;;8.75;8.50;;;;;39.16;29.53;100735.66;5056497;28;45380;-51
2023/08/24 08:34:33;;;;;;;;;9.00;8.80;;;;;40.88;27.57;100769.50;5055779;28;45512;-50
2023/08/24 08:36:58;;;;;;;;;9.00;7.50;;;;;42.78;25.67;100767.94;5055715;28;45392;-50
2023/08/24 08:39:23;;;;;;;;;10.00;9.25;;;;;43.76;24.57;100772.41;5056041;28;45368;-50
2023/08/24 08:41:49;;;;;;;;;9.25;9.25;;;;;45.16;22.73;100783.94;5056244;28;45390;-49
2023/08/24 08:44:15;;;;;;;;;10.75;9.00;;;;;46.38;22.06;100783.25;5055970;28;46267;-47
2023/08/24 08:46:42;;;;;;;;;10.80;9.20;;;;;46.94;21.14;100784.88;5055829;28;45430;-48
2023/08/24 08:49:09;;;;;;;;;7.40;7.40;;;;;47.84;20.13;100793.72;5055640;28;45243;-47
2023/08/24 08:51:36;;;;;;;;;7.80;7.80;;;;;48.45;19.73;100789.72;5056274;28;45524;-48
2023/08/24 08:54:02;;;;;;;;;9.20;8.80;;;;;48.13;19.83;100798.19;5058755;28;45536;-52
2023/08/24 08:56:29;;;;;;;;;8.60;8.60;;;;;49.13;18.53;100795.25;5059196;28;45405;-50
2023/08/24 08:58:56;;;;;;;;;8.40;7.00;;;;;49.82;18.54;100779.56;5057985;28;45483;-51
2023/08/24 09:01:22;;;;;;;;;9.00;9.00;;;;;50.67;17.04;100791.41;5059366;28;45205;-49
2023/08/24 09:03:48;;;;;;;;;13.00;8.80;;;;;51.37;17.26;100780.47;5059001;28;45337;-49
2023/08/24 09:06:14;;;;;;;;;12.50;11.00;;;;;51.91;16.24;100771.16;5059115;28;45515;-49
2023/08/24 09:08:39;;;;;;;;;7.25;7.00;;;;;52.36;16.47;100750.94;5059125;28;45382;-50
2023/08/24 09:11:08;;;;;;;;;9.25;9.25;;;;;52.00;16.83;100737.38;5059191;28;45467;-47
2023/08/24 09:13:33;;;;;;;;;11.00;9.20;;;;;52.11;16.77;100723.00;5059158;28;47228;-49
2023/08/24 09:16:07;;;;;;;;;9.25;8.50;;;;;48.99;18.54;100735.97;5059061;28;45413;-49
2023/08/24 09:18:37;;;;;;;;;12.00;10.20;;;;;46.17;20.90;100744.50;5058986;28;45339;-48
2023/08/24 09:21:23;;;;;;;;;10.60;10.00;;;;;45.66;22.19;100767.69;5059233;28;45498;-46
2023/08/24 09:23:56;;;;;;;;;11.00;10.20;;;;;46.45;20.52;100774.88;5058693;28;46729;-49
2023/08/24 09:26:33;;;;;;;;;8.00;8.00;;;;;46.51;20.86;100783.75;5058954;28;45282;-48
2023/08/24 09:28:59;;;;;;;;;11.00;9.80;;;;;46.84;20.51;100773.53;5058986;28;45393;-48
2023/08/24 09:31:38;;;;;;;;;9.80;8.00;;;;;44.54;22.39;100787.03;5059070;28;45521;-47
2023/08/24 09:34:04;;;;;;;;;10.00;8.60;;;;;42.67;24.51;100791.25;5058604;28;45637;-46
2023/08/24 09:36:34;;;;;;;;;10.50;9.25;;;;;40.97;26.34;100812.03;5058811;28;45339;-45
2023/08/24 09:39:00;;;;;;;;;10.80;10.00;;;;;39.58;27.87;100821.13;5058781;28;45336;-48
2023/08/24 09:41:43;;;;;;;;;8.00;7.40;;;;;38.37;29.66;100817.88;5058870;28;45459;-48
2023/08/24 09:44:08;;;;;;;;;10.60;9.60;;;;;37.52;30.76;100831.50;5058689;28;45819;-49
2023/08/24 09:46:38;;;;;;;;;9.25;9.25;;;;;36.67;31.29;100840.09;5057208;28;45396;-45
2023/08/24 09:49:08;;;;;;;;;7.00;7.00;;;;;35.83;32.23;100835.31;5058429;28;45469;-47
2023/08/24 09:51:35;;;;;;;;;11.40;9.20;;;;;35.07;33.62;100829.56;5058983;28;45389;-47
2023/08/24 09:54:06;;;;;;;;;10.40;9.00;;;;;34.43;34.76;100825.81;5058133;28;45461;-50
2023/08/24 09:56:36;;;;;;;;;9.20;8.80;;;;;33.82;35.31;100815.81;5058283;28;45296;-46
2023/08/24 09:59:10;;;;;;;;;9.60;9.60;;;;;33.23;35.97;100823.53;5058624;28;45795;-49
2023/08/24 10:01:37;;;;;;;;;10.20;9.40;;;;;32.74;37.35;100814.50;5058553;28;45447;-46
2023/08/24 10:04:05;;;;;;;;;8.60;8.60;;;;;32.34;38.00;100836.91;5057939;28;46188;-48
2023/08/24 10:06:32;;;;;;;;;12.60;9.40;;;;;32.04;38.25;100844.34;5058310;28;45374;-49
2023/08/24 10:09:04;;;;;;;;;8.40;8.40;;;;;31.76;38.54;100843.94;5058104;28;45414;-49
2023/08/24 10:11:34;;;;;;;;;10.20;10.20;;;;;31.58;40.13;100846.56;5058834;28;44877;-49
2023/08/24 10:14:10;;;;;;;;;16.00;11.80;;;;;31.39;40.36;100833.47;5056017;28;46084;-48
2023/08/24 10:16:36;;;;;;;;;10.60;9.20;;;;;31.29;40.26;100828.84;5057955;28;45514;-48
2023/08/24 10:19:02;;;;;;;;;10.80;10.60;;;;;31.17;40.65;100828.31;5058198;28;45459;-49
2023/08/24 10:21:28;;;;;;;;;10.60;9.60;;;;;31.09;40.80;100822.59;5058216;28;45432;-48
2023/08/24 10:23:56;;;;;;;;;10.00;10.00;;;;;31.03;40.98;100813.56;5057951;28;46330;-47
2023/08/24 10:26:23;;;;;;;;;11.40;11.40;;;;;31.00;41.17;100798.47;5057918;28;45421;-49
2023/08/24 10:28:53;;;;;;;;;11.60;11.40;;;;;31.01;41.28;100799.28;5057930;28;45347;-48
2023/08/24 10:31:36;;;;;;;;;13.00;12.00;;;;;31.04;41.97;100813.28;5015705;28;45358;-49
2023/08/24 10:34:05;;;;;;;;;10.00;10.00;;;;;31.09;41.47;100812.44;5015474;28;46050;-48
2023/08/24 10:36:31;;;;;;;;;12.40;10.80;;;;;31.13;41.15;100805.25;5015373;28;45232;-50
2023/08/24 10:38:59;;;;;;;;;10.80;10.80;;;;;31.17;41.36;100811.03;5015406;28;45524;-50
2023/08/24 10:41:27;;;;;;;;;14.20;11.80;;;;;31.21;41.19;100825.84;5015739;28;45483;-47
2023/08/24 10:44:06;;;;;;;;;11.40;11.40;;;;;31.17;40.75;100831.06;5015549;28;45473;-50
2023/08/24 10:46:34;;;;;;;;;12.60;10.60;;;;;31.11;40.91;100848.72;5015390;28;45441;-48
2023/08/24 10:49:00;;;;;;;;;9.20;9.00;;;;;31.03;41.66;100871.25;5015133;28;45503;-43
2023/08/24 10:51:30;;;;;;;;;12.00;10.25;;;;;30.93;41.84;100877.63;5015563;28;45453;-49
2023/08/24 10:53:57;;;;;;;;;13.20;10.20;;;;;30.80;40.90;100878.19;4998928;28;45538;-48
2023/08/24 10:56:32;;;;;;;;;12.40;10.60;;;;;30.73;41.56;100889.47;5015177;28;45363;-49
2023/08/24 10:59:23;;;;;;;;;12.20;10.80;;;;;30.57;41.95;100882.31;5014763;28;45442;-48
2023/08/24 11:01:51;;;;;;;;;12.40;11.80;;;;;30.39;42.88;100891.97;5021165;28;45334;-48
2023/08/24 11:04:17;;;;;;;;;12.00;12.00;;;;;30.19;43.04;100881.00;5057344;28;47617;-49
2023/08/24 11:06:58;;;;;;;;;11.60;10.20;;;;;30.04;43.32;100901.81;5057238;28;45328;-46
2023/08/24 11:09:24;;;;;;;;;14.00;12.40;;;;;29.98;43.07;100894.66;5057097;28;45382;-46
2023/08/24 11:12:00;;;;;;;;;12.75;10.50;;;;;29.91;42.87;100885.84;5057510;28;45371;-48
2023/08/24 11:14:26;;;;;;;;;14.00;13.60;;;;;29.83;43.62;100872.69;5056684;28;46689;-49
2023/08/24 11:16:52;;;;;;;;;11.80;11.80;;;;;29.77;44.10;100891.06;5055808;28;45213;-47